KCHD/CHD METAR and TAF weather

Enter ICAO airport designator
Station Type Date Time Source
KCHD METAR 2021/03/03 20:47 UTC NOAA

KCHD 032047Z 20011G20KT 10SM FEW120 29/M14 A2977


Station Type Date Time Source
KCHD Decoded METAR 2021/03/03 20:47 UTC NOAA

Chandler, Chandler Municipal Airport, AZ, United States (KCHD) 33-16-09N 111-48-40W
Mar 03, 2021 - 03:47 PM EST / 2021.03.03 2047 UTC
Wind: from the SSW (200 degrees) at 13 MPH (11 KT) gusting to 23 MPH (20 KT):0
Visibility: 10 mile(s):0
Sky conditions: mostly clear
Temperature: 84 F (29 C)
Dew Point: 6 F (-14 C)
Relative Humidity: 5%
Pressure (altimeter): 29.77 in. Hg (1008 hPa)
ob: KCHD 032047Z 20011G20KT 10SM FEW120 29/M14 A2977
cycle: 21

Station Type Date Time Source
KCHD TAF UTC NOAA

Error!

Example: see airport list